createdAt,value
2023-03-22T00:02:21.753Z,3.47
2023-03-22T00:04:49.053Z,3.49
2023-03-22T00:07:15.991Z,3.48
2023-03-22T00:09:43.016Z,3.54
2023-03-22T00:12:09.964Z,3.56
2023-03-22T00:14:37.028Z,3.54
2023-03-22T00:17:04.126Z,3.54
2023-03-22T00:19:34.082Z,3.49
2023-03-22T00:22:01.321Z,3.49
2023-03-22T00:24:28.316Z,3.45
2023-03-22T00:26:55.425Z,3.43
2023-03-22T00:29:24.143Z,3.42
2023-03-22T00:31:54.430Z,3.41
2023-03-22T00:34:21.455Z,3.37
2023-03-22T00:36:48.554Z,3.38
2023-03-22T00:39:15.833Z,3.36
2023-03-22T00:41:43.240Z,3.36
2023-03-22T00:44:11.844Z,3.31
2023-03-22T00:46:38.928Z,3.31
2023-03-22T00:49:06.127Z,3.36
2023-03-22T00:51:33.060Z,3.43
2023-03-22T00:54:00.599Z,3.44
2023-03-22T00:56:28.864Z,3.41
2023-03-22T00:59:01.502Z,3.35
2023-03-22T01:01:29.882Z,3.37
2023-03-22T01:03:56.919Z,3.36
2023-03-22T01:06:23.954Z,3.37
2023-03-22T01:08:51.158Z,3.33
2023-03-22T01:11:18.379Z,3.33
2023-03-22T01:13:45.642Z,3.35
2023-03-22T01:16:12.695Z,3.33
2023-03-22T01:18:40.081Z,3.38
2023-03-22T01:21:07.972Z,3.35
2023-03-22T01:23:35.324Z,3.40
2023-03-22T01:26:02.299Z,3.38
2023-03-22T01:28:29.566Z,3.36
2023-03-22T01:30:57.281Z,3.38
2023-03-22T01:33:24.657Z,3.42
2023-03-22T01:35:52.167Z,3.38
2023-03-22T01:38:19.996Z,3.40
2023-03-22T01:40:54.994Z,3.37
2023-03-22T01:43:22.516Z,3.32
2023-03-22T01:45:50.863Z,3.29
2023-03-22T01:48:34.383Z,3.27
2023-03-22T01:51:05.345Z,3.23
2023-03-22T01:53:41.181Z,3.26
2023-03-22T01:56:08.662Z,3.21
2023-03-22T01:58:36.980Z,3.15
2023-03-22T02:01:06.608Z,3.18
2023-03-22T02:04:10.455Z,3.16
2023-03-22T02:06:38.469Z,3.16
2023-03-22T02:09:11.985Z,3.17
2023-03-22T02:11:42.122Z,3.17
2023-03-22T02:15:03.796Z,3.23
2023-03-22T02:18:16.547Z,3.21
2023-03-22T02:21:27.170Z,3.20
2023-03-22T02:24:05.901Z,3.19
2023-03-22T02:26:41.614Z,3.18
2023-03-22T02:29:22.016Z,3.23
2023-03-22T02:32:04.099Z,3.22
2023-03-22T02:35:08.703Z,3.17
2023-03-22T02:38:17.051Z,3.14
2023-03-22T02:41:03.612Z,3.11
2023-03-22T02:44:01.421Z,3.01
2023-03-22T02:46:40.194Z,2.99
2023-03-22T02:49:34.169Z,3.05
2023-03-22T02:52:17.543Z,3.09
2023-03-22T02:55:01.612Z,3.10
2023-03-22T02:57:46.170Z,3.12
2023-03-22T03:00:14.135Z,3.17
2023-03-22T03:02:45.274Z,3.17
2023-03-22T03:05:12.299Z,3.15
2023-03-22T03:07:39.405Z,3.12
2023-03-22T03:10:07.291Z,3.16
2023-03-22T03:12:34.266Z,3.12
2023-03-22T03:15:01.683Z,3.15
2023-03-22T03:17:50.575Z,3.14
2023-03-22T03:20:30.164Z,3.17
2023-03-22T03:23:34.868Z,3.16
2023-03-22T03:26:13.646Z,3.17
2023-03-22T03:29:06.768Z,3.13
2023-03-22T03:31:39.999Z,3.13
2023-03-22T03:34:28.502Z,3.07
2023-03-22T03:37:01.909Z,3.07
2023-03-22T03:39:30.819Z,3.07
2023-03-22T03:41:57.876Z,3.08
2023-03-22T03:44:26.480Z,3.09
2023-03-22T03:46:53.496Z,3.12
2023-03-22T03:49:20.400Z,3.15
2023-03-22T03:51:55.028Z,3.18
2023-03-22T03:54:22.575Z,3.19
2023-03-22T03:56:49.646Z,3.11
2023-03-22T03:59:17.246Z,3.08
2023-03-22T04:01:52.421Z,3.07
2023-03-22T04:04:27.313Z,3.10
2023-03-22T04:07:05.269Z,3.14
2023-03-22T04:09:36.274Z,3.15
2023-03-22T04:12:20.653Z,3.15
2023-03-22T04:15:08.174Z,3.20
2023-03-22T04:17:35.143Z,3.21
2023-03-22T04:20:05.375Z,3.26
2023-03-22T04:22:38.396Z,3.34
2023-03-22T04:25:06.596Z,3.41
2023-03-22T04:27:33.589Z,3.41
2023-03-22T04:30:05.404Z,3.41
2023-03-22T04:32:50.944Z,3.38
2023-03-22T04:35:23.238Z,3.38
2023-03-22T04:37:53.836Z,3.38
2023-03-22T04:40:22.211Z,3.39
2023-03-22T04:42:58.996Z,3.46
2023-03-22T04:45:46.314Z,3.48
2023-03-22T04:48:20.556Z,3.44
2023-03-22T04:50:47.704Z,3.42
2023-03-22T04:53:14.931Z,3.42
2023-03-22T04:55:45.491Z,3.42
2023-03-22T04:58:12.733Z,3.39
2023-03-22T05:00:42.389Z,3.43
2023-03-22T05:03:10.977Z,3.43
2023-03-22T05:05:50.860Z,3.50
2023-03-22T05:08:17.763Z,3.56
2023-03-22T05:10:47.492Z,3.66
2023-03-22T05:13:14.629Z,3.66
2023-03-22T05:15:45.676Z,3.63
2023-03-22T05:18:20.547Z,3.62
2023-03-22T05:20:47.877Z,3.67
2023-03-22T05:23:19.355Z,3.67
2023-03-22T05:25:49.860Z,3.72
2023-03-22T05:28:19.648Z,3.71
2023-03-22T05:31:05.822Z,3.71
2023-03-22T05:33:42.409Z,3.75
2023-03-22T05:36:11.808Z,3.75
2023-03-22T05:38:50.349Z,3.79
2023-03-22T05:41:17.792Z,3.79
2023-03-22T05:43:44.713Z,3.81
2023-03-22T05:46:12.186Z,3.80
2023-03-22T05:48:59.267Z,3.84
2023-03-22T05:51:27.437Z,3.89
2023-03-22T05:53:54.648Z,3.86
2023-03-22T05:56:25.805Z,3.87
2023-03-22T05:59:00.743Z,3.81
2023-03-22T06:01:27.930Z,3.84
2023-03-22T06:04:10.741Z,3.89
2023-03-22T06:07:07.456Z,4.02
2023-03-22T06:09:46.208Z,3.91
2023-03-22T06:12:18.692Z,3.87
2023-03-22T06:14:50.996Z,3.86
2023-03-22T06:17:31.190Z,3.86
2023-03-22T06:19:58.543Z,3.87
2023-03-22T06:22:25.458Z,3.92
2023-03-22T06:24:52.700Z,3.97
2023-03-22T06:27:29.813Z,4.01
2023-03-22T06:29:56.765Z,4.05
2023-03-22T06:32:26.846Z,4.07
2023-03-22T06:34:55.174Z,4.07
2023-03-22T06:37:23.379Z,4.04
2023-03-22T06:39:51.853Z,4.08
2023-03-22T06:42:20.373Z,4.12
2023-03-22T06:44:55.425Z,4.20
2023-03-22T06:47:29.480Z,4.25
2023-03-22T06:50:15.863Z,4.32
2023-03-22T06:52:56.463Z,4.38
2023-03-22T06:55:23.811Z,4.46
2023-03-22T06:57:50.947Z,4.45
2023-03-22T07:00:18.275Z,4.50
2023-03-22T07:02:45.597Z,4.55
2023-03-22T07:05:20.416Z,4.63
2023-03-22T07:07:47.477Z,4.65
2023-03-22T07:10:14.583Z,4.70
2023-03-22T07:12:41.581Z,4.80
2023-03-22T07:15:12.487Z,4.88
2023-03-22T07:17:48.405Z,4.96
2023-03-22T07:20:15.477Z,5.04
2023-03-22T07:22:42.526Z,5.02
2023-03-22T07:25:09.706Z,5.07
2023-03-22T07:27:37.462Z,5.13
2023-03-22T07:30:07.168Z,5.20
2023-03-22T07:32:41.733Z,5.25
2023-03-22T07:35:12.845Z,5.25
2023-03-22T07:37:40.829Z,5.44
2023-03-22T07:40:17.509Z,5.63
2023-03-22T07:42:44.629Z,5.82
2023-03-22T07:45:35.902Z,5.98
2023-03-22T07:48:23.099Z,6.08
2023-03-22T07:51:01.899Z,6.17
2023-03-22T07:53:29.687Z,6.28
2023-03-22T07:55:57.361Z,6.34
2023-03-22T07:58:24.343Z,6.37
2023-03-22T08:00:51.459Z,6.36
2023-03-22T08:03:41.496Z,6.37
2023-03-22T08:06:19.528Z,6.33
2023-03-22T08:08:46.613Z,6.26
2023-03-22T08:11:13.678Z,6.22
2023-03-22T08:13:41.038Z,6.13
2023-03-22T08:16:10.074Z,6.04
2023-03-22T08:18:37.271Z,6.03
2023-03-22T08:21:05.335Z,6.01
2023-03-22T08:23:41.564Z,6.02
2023-03-22T08:26:15.097Z,5.89
2023-03-22T08:28:43.216Z,5.94
2023-03-22T08:31:15.294Z,5.81
2023-03-22T08:33:44.273Z,5.71
2023-03-22T08:36:13.669Z,5.67
2023-03-22T08:38:46.968Z,5.56
2023-03-22T08:41:19.966Z,5.53
2023-03-22T08:43:47.101Z,5.54
2023-03-22T08:46:14.183Z,5.58
2023-03-22T08:48:41.817Z,5.73
2023-03-22T08:51:16.470Z,5.84
2023-03-22T08:54:09.385Z,5.86
2023-03-22T08:56:59.355Z,5.73
2023-03-22T08:59:45.234Z,5.47
2023-03-22T09:02:24.750Z,5.56
2023-03-22T09:04:52.914Z,5.75
2023-03-22T09:07:20.416Z,6.00
2023-03-22T09:09:56.502Z,6.11
2023-03-22T09:12:25.296Z,6.14
2023-03-22T09:14:54.762Z,6.24
2023-03-22T09:17:23.724Z,6.32
2023-03-22T09:19:57.692Z,6.32
2023-03-22T09:22:31.126Z,6.34
2023-03-22T09:25:01.865Z,6.33
2023-03-22T09:27:30.791Z,6.34
2023-03-22T09:29:57.936Z,6.34
2023-03-22T09:32:24.938Z,6.34
2023-03-22T09:34:58.085Z,6.35
2023-03-22T09:37:30.272Z,6.33
2023-03-22T09:39:58.363Z,6.34
2023-03-22T09:42:30.536Z,6.47
2023-03-22T09:45:00.766Z,6.60
2023-03-22T09:47:44.762Z,6.76
2023-03-22T09:50:23.246Z,6.99
2023-03-22T09:52:50.454Z,7.09
2023-03-22T09:55:19.951Z,6.96
2023-03-22T09:57:54.552Z,6.85
2023-03-22T10:00:30.805Z,6.94
2023-03-22T10:02:57.595Z,6.87
2023-03-22T10:05:42.983Z,6.86
2023-03-22T10:08:25.764Z,6.98
2023-03-22T10:10:52.804Z,7.03
2023-03-22T10:13:29.034Z,7.00
2023-03-22T10:15:57.091Z,6.95
2023-03-22T10:18:30.097Z,6.92
2023-03-22T10:21:04.469Z,6.83
2023-03-22T10:23:49.552Z,6.81
2023-03-22T10:26:29.543Z,6.77
2023-03-22T10:29:04.083Z,6.79
2023-03-22T10:31:32.242Z,6.75
2023-03-22T10:34:07.514Z,6.77
2023-03-22T10:36:36.047Z,6.79
2023-03-22T10:39:19.944Z,6.69
2023-03-22T10:41:47.009Z,6.62
2023-03-22T10:44:16.374Z,6.50
2023-03-22T10:46:43.398Z,6.44
2023-03-22T10:49:13.661Z,6.43
2023-03-22T10:51:42.631Z,6.42
2023-03-22T10:54:17.128Z,6.44
2023-03-22T10:56:45.115Z,6.41
2023-03-22T10:59:44.636Z,6.49
2023-03-22T11:02:23.577Z,6.46
2023-03-22T11:04:55.537Z,6.41
2023-03-22T11:07:47.880Z,6.34
2023-03-22T11:10:27.633Z,6.33
2023-03-22T11:13:16.988Z,6.36
2023-03-22T11:15:53.034Z,6.31
2023-03-22T11:18:20.088Z,6.24
2023-03-22T11:21:17.167Z,6.26
2023-03-22T11:23:55.486Z,6.24
2023-03-22T11:26:28.356Z,6.19
2023-03-22T11:29:03.643Z,6.18
2023-03-22T11:31:49.176Z,6.12
2023-03-22T11:34:18.579Z,6.20
2023-03-22T11:36:52.806Z,6.31
2023-03-22T11:39:21.477Z,6.34
2023-03-22T11:41:48.366Z,6.36
2023-03-22T11:44:21.730Z,6.37
2023-03-22T11:46:50.485Z,6.38
2023-03-22T11:49:17.472Z,6.39
2023-03-22T11:51:44.398Z,6.45
2023-03-22T11:54:25.932Z,6.45
2023-03-22T11:56:54.677Z,6.41
2023-03-22T11:59:39.803Z,6.36
2023-03-22T12:02:19.938Z,6.34
2023-03-22T12:04:48.142Z,6.26
2023-03-22T12:07:21.542Z,6.24
2023-03-22T12:10:02.006Z,6.26
2023-03-22T12:12:32.187Z,6.25
2023-03-22T12:15:06.734Z,6.19
2023-03-22T12:17:40.959Z,6.18
2023-03-22T12:21:03.569Z,6.13
2023-03-22T12:23:31.893Z,6.16
2023-03-22T12:26:11.850Z,6.17
2023-03-22T12:29:00.768Z,6.18
2023-03-22T12:31:30.907Z,6.15
2023-03-22T12:34:03.442Z,6.12
2023-03-22T12:36:33.877Z,6.08
2023-03-22T12:39:01.732Z,6.03
2023-03-22T12:41:34.765Z,6.03
2023-03-22T12:44:11.362Z,5.99
2023-03-22T12:46:49.370Z,5.98
2023-03-22T12:49:25.669Z,5.90
2023-03-22T12:51:52.368Z,5.97
2023-03-22T12:54:19.220Z,6.00
2023-03-22T12:56:46.328Z,6.02
2023-03-22T12:59:20.203Z,6.12
2023-03-22T13:02:01.922Z,6.22
2023-03-22T13:04:36.297Z,6.32
2023-03-22T13:07:12.486Z,6.37
2023-03-22T13:09:47.228Z,6.36
2023-03-22T13:12:17.189Z,6.34
2023-03-22T13:14:59.269Z,6.36
2023-03-22T13:17:26.246Z,6.31
2023-03-22T13:20:15.717Z,6.24
2023-03-22T13:22:58.930Z,6.13
2023-03-22T13:25:37.031Z,6.11
2023-03-22T13:28:20.165Z,6.08
2023-03-22T13:30:55.314Z,6.04
2023-03-22T13:33:29.307Z,6.01
2023-03-22T13:36:01.516Z,5.97
2023-03-22T13:38:42.621Z,6.02
2023-03-22T13:41:27.939Z,6.07
2023-03-22T13:43:59.280Z,6.04
2023-03-22T13:46:44.864Z,6.03
2023-03-22T13:49:48.290Z,5.96
2023-03-22T13:52:35.888Z,5.95
2023-03-22T13:55:03.241Z,5.92
2023-03-22T13:58:12.116Z,5.90
2023-03-22T14:00:41.493Z,5.90
2023-03-22T14:03:14.573Z,5.91
2023-03-22T14:05:41.680Z,5.90
2023-03-22T14:08:24.165Z,5.89
2023-03-22T14:10:55.579Z,5.84
2023-03-22T14:13:38.022Z,5.74
2023-03-22T14:16:12.017Z,5.67
2023-03-22T14:18:41.700Z,5.63
2023-03-22T14:21:13.692Z,5.60
